Bluffton, IN

10:55 PM EST ye 17 January, 2018 (GMT -0500)
JarredSisler | | Change Station

Elev 823 ft 40.73 °N, 85.17 °W | Updated 28 seconds ago

Klara
Klara
12.2 °F
Feels Like 0 °F
N
9.0
Vento Variema Vento from Westo

Hodie
High -- | Low -- °F
--% Chance of Precip.
Yesterday
High -- | Low -- °F
Precip. -- in
Presuro 30.40 in
Videbleso 10.0 milii
Clouds Few 15000 ft
Ventokoldeso 0 °F
Rosifopunto 7 °F
Humideso 81%
Rainfall 0.00 in
Snow Depth Not available.
8:01 AM 5:40 PM
New, 1% visible
METAR KFWA 180254Z 24013KT 10SM FEW150 M11/M14 A3035 RMK AO2 SLP293 T11061139 56023
Presuro 30.40 in
Videbleso 10.0 milii
Clouds Few 15000 ft
Ventokoldeso 0 °F
Rosifopunto 7 °F
Humideso 81%
Rainfall 0.00 in
Snow Depth Not available.
8:01 AM 5:40 PM
New, 1% visible
METAR KFWA 180254Z 24013KT 10SM FEW150 M11/M14 A3035 RMK AO2 SLP293 T11061139 56023

Get Severe Weather Alerts

Thanks for signing up!

Be on the lookout for a verification email in your inbox.

You'll start receiving the daily forecast at 6 AM.

×

10-Day Weather Forecast

Almanac

Astronomy

Jan. 17, 2018 Rise Set
Actual Time
Civil Twilight
Nautical Twilight
Astronomical Twilight
Moon
Length Of Visible Light
Length of Day
Tomorrow will be .
, % of the Moon is Illuminated

Today's Extremes

State Highs State Lows

Community

WunderPhotos

Category 6

Welcome to Category 6. This is the collective home for Weather Underground's featured writeups by Dr. Jeff Masters (right), Bob Henson (left), Chris Burt, and other regular contributors.

Nearby

Air Quality

  Air Quality AQ Index Pollutant
Not available.

Snow Depth

Station Depth Elevation

Earthquake Activity

City Distance Mag. Time & Date
Minimum magnitude displayed is 2.5.

Coastal Water Temperatures

Loko Temperaturo

Stations

Nearby Weather Stations

Station Location Temp Ventokoldeso Rosifopunto Humideso Vento Precip. Elev Aktualigita Type
                   

Watches & Warnings

There are currently no watches in effect.